Time;durP1;ratioP1;P1;durP2;ratioP2;P2;SDS_P1;SDS_P2;PMS_P1;PMS_P2;Temp;Humidity;BMP_temperature;BMP_pressure;BME280_temperature;BME280_humidity;BME280_pressure;Samples;Min_cycle;Max_cycle;Signal;HPM_P1;HPM_P2
2021/12/08 00:00:03;;;;;;;13.23;12.83;;;19.50;51.40;;;;;;5073657;28;20498;-58
2021/12/08 00:02:30;;;;;;;13.20;12.70;;;19.40;51.60;;;;;;5073286;28;20432;-59
2021/12/08 00:04:57;;;;;;;12.80;12.37;;;19.40;51.70;;;;;;5053701;28;20445;-57
2021/12/08 00:07:23;;;;;;;13.37;12.87;;;19.40;51.90;;;;;;5053401;28;20478;-55
2021/12/08 00:10:03;;;;;;;13.13;12.67;;;19.30;52.00;;;;;;5053262;28;20471;-58
2021/12/08 00:15:15;;;;;;;12.90;12.50;;;19.20;52.30;;;;;;5053362;28;20443;-60
2021/12/08 00:17:42;;;;;;;12.70;12.30;;;19.20;52.50;;;;;;5053212;28;20814;-58
2021/12/08 00:20:10;;;;;;;12.77;12.37;;;19.10;52.50;;;;;;5053152;28;20467;-58
2021/12/08 00:22:37;;;;;;;13.63;13.20;;;19.10;52.70;;;;;;5052767;28;20930;-57
2021/12/08 00:25:06;;;;;;;13.27;12.77;;;19.00;52.80;;;;;;5073038;28;20804;-56
2021/12/08 00:27:33;;;;;;;13.30;12.90;;;19.00;52.90;;;;;;5073002;28;21010;-60
2021/12/08 00:29:59;;;;;;;13.10;12.70;;;18.90;53.00;;;;;;5072822;28;20463;-58
2021/12/08 00:32:29;;;;;;;13.17;12.77;;;18.90;53.20;;;;;;5072626;28;20475;-60
2021/12/08 00:34:56;;;;;;;12.90;12.50;;;18.90;53.40;;;;;;5054023;28;20510;-60
2021/12/08 00:37:23;;;;;;;13.03;12.63;;;18.80;53.50;;;;;;5052701;28;20451;-53
2021/12/08 00:39:52;;;;;;;13.47;13.03;;;18.80;53.60;;;;;;5052604;28;20480;-58
2021/12/08 00:42:20;;;;;;;13.60;13.20;;;18.70;53.70;;;;;;5052558;28;20483;-59
2021/12/08 00:44:47;;;;;;;13.43;13.03;;;18.70;53.90;;;;;;5069682;28;20963;-57
2021/12/08 00:47:15;;;;;;;13.80;13.30;;;18.70;54.10;;;;;;5072624;28;20522;-56
2021/12/08 00:49:41;;;;;;;13.13;12.73;;;18.60;54.10;;;;;;5072418;28;20470;-57
2021/12/08 00:52:09;;;;;;;12.80;12.50;;;18.50;54.20;;;;;;5072253;28;20475;-55
2021/12/08 00:54:35;;;;;;;13.20;12.80;;;18.40;54.40;;;;;;5056868;28;20458;-57
2021/12/08 00:57:02;;;;;;;12.80;12.40;;;18.40;54.50;;;;;;5069697;28;20813;-55
2021/12/08 00:59:30;;;;;;;13.20;12.80;;;18.40;54.60;;;;;;5072437;28;21058;-55
2021/12/08 01:02:02;;;;;;;13.30;12.90;;;18.40;54.70;;;;;;5072222;28;20446;-54
2021/12/08 01:04:29;;;;;;;13.50;13.10;;;18.30;54.80;;;;;;5057864;28;20857;-58
2021/12/08 01:06:56;;;;;;;12.90;12.50;;;18.40;54.90;;;;;;5052356;28;20510;-56
2021/12/08 01:09:23;;;;;;;12.73;12.43;;;18.30;55.00;;;;;;5051903;28;20509;-58
2021/12/08 01:11:49;;;;;;;13.50;13.10;;;18.20;55.10;;;;;;5052006;28;20483;-53
2021/12/08 01:14:16;;;;;;;13.63;13.23;;;18.20;55.20;;;;;;5064231;28;20804;-57
2021/12/08 01:16:45;;;;;;;13.37;12.97;;;18.20;55.40;;;;;;5072104;28;20892;-55
2021/12/08 01:19:12;;;;;;;13.30;12.90;;;18.10;55.50;;;;;;5072028;28;20443;-54
2021/12/08 01:21:39;;;;;;;13.63;13.23;;;18.10;55.70;;;;;;5071685;28;20443;-58
2021/12/08 01:24:06;;;;;;;13.40;13.00;;;18.00;55.90;;;;;;5060927;28;20456;-56
2021/12/08 01:26:32;;;;;;;13.73;13.33;;;18.00;56.00;;;;;;5051901;28;20448;-56
2021/12/08 01:28:59;;;;;;;13.13;12.73;;;18.00;56.20;;;;;;5051936;28;20813;-56
2021/12/08 01:31:26;;;;;;;12.50;12.10;;;18.00;56.30;;;;;;5051820;28;20487;-56
2021/12/08 01:33:54;;;;;;;13.73;13.23;;;17.90;56.30;;;;;;5060354;28;20444;-57
2021/12/08 01:36:21;;;;;;;13.10;12.80;;;17.90;56.40;;;;;;5071774;28;20443;-58
2021/12/08 01:38:48;;;;;;;13.33;12.97;;;17.90;56.50;;;;;;5071908;28;20458;-57
2021/12/08 01:41:15;;;;;;;12.80;12.50;;;17.80;56.60;;;;;;5071671;28;20471;-58
2021/12/08 01:43:43;;;;;;;13.50;13.10;;;17.80;56.80;;;;;;5069737;28;20444;-54
2021/12/08 01:46:11;;;;;;;13.07;12.67;;;17.80;56.80;;;;;;5071765;28;20455;-54
2021/12/08 01:48:41;;;;;;;12.63;12.33;;;17.80;56.90;;;;;;5071625;28;20439;-57
2021/12/08 01:51:11;;;;;;;13.07;12.67;;;17.80;57.00;;;;;;5071416;28;20463;-57
2021/12/08 01:53:38;;;;;;;13.27;12.80;;;17.70;57.00;;;;;;5064881;28;20980;-56
2021/12/08 01:56:06;;;;;;;13.10;12.70;;;17.80;57.30;;;;;;5051602;28;20440;-56
2021/12/08 01:58:33;;;;;;;12.80;12.40;;;17.70;57.30;;;;;;5051401;28;20436;-55
2021/12/08 02:01:03;;;;;;;13.00;12.60;;;17.70;57.50;;;;;;5051390;28;20468;-57
2021/12/08 02:03:30;;;;;;;13.20;12.80;;;17.60;57.40;;;;;;5069728;28;20451;-55
2021/12/08 02:05:58;;;;;;;13.30;12.80;;;17.70;57.60;;;;;;5071502;28;20454;-56
2021/12/08 02:08:27;;;;;;;13.10;12.70;;;17.60;57.60;;;;;;5071467;28;20447;-54
2021/12/08 02:10:54;;;;;;;13.30;12.90;;;17.70;57.80;;;;;;5071230;28;20459;-58
2021/12/08 02:13:20;;;;;;;12.90;12.53;;;17.60;57.70;;;;;;5053680;28;20853;-58
2021/12/08 02:15:48;;;;;;;12.97;12.57;;;17.60;57.80;;;;;;5051416;28;20444;-57
2021/12/08 02:18:17;;;;;;;13.20;12.80;;;17.60;57.90;;;;;;5051338;28;20472;-54
2021/12/08 02:20:47;;;;;;;13.13;12.73;;;17.60;58.00;;;;;;5051571;28;20495;-58
2021/12/08 02:23:17;;;;;;;13.27;12.87;;;17.60;58.10;;;;;;5070911;28;20443;-59
2021/12/08 02:25:45;;;;;;;12.80;12.50;;;17.50;58.20;;;;;;5073594;28;20814;-58
2021/12/08 02:28:12;;;;;;;12.80;12.40;;;17.50;58.30;;;;;;5075357;28;20450;-56
2021/12/08 02:30:45;;;;;;;12.40;12.10;;;17.50;58.40;;;;;;5075166;28;20470;-57
2021/12/08 02:47:15;;;;;;;12.90;12.60;;;17.40;59.00;;;;;;5055117;28;20828;-59
2021/12/08 02:49:43;;;;;;;13.20;12.80;;;17.30;59.00;;;;;;5054803;28;20468;-56
2021/12/08 02:52:13;;;;;;;12.93;12.53;;;17.30;59.20;;;;;;5060517;28;20475;-55
2021/12/08 02:54:43;;;;;;;12.57;12.27;;;17.30;59.30;;;;;;5074894;28;20813;-57
2021/12/08 02:57:11;;;;;;;13.07;12.67;;;17.30;59.40;;;;;;5074788;28;20443;-55
2021/12/08 02:59:39;;;;;;;12.77;12.47;;;17.30;59.50;;;;;;5074624;28;20813;-56
2021/12/08 03:02:07;;;;;;;13.60;13.10;;;17.30;59.40;;;;;;5068786;28;20447;-56
2021/12/08 03:04:34;;;;;;;13.43;12.93;;;17.40;59.40;;;;;;5054774;28;20452;-57
2021/12/08 03:07:01;;;;;;;13.20;12.90;;;17.30;59.50;;;;;;5054521;28;20455;-57
2021/12/08 03:09:28;;;;;;;12.73;12.43;;;17.30;59.60;;;;;;5054461;28;20448;-55
2021/12/08 03:11:58;;;;;;;13.10;12.70;;;17.20;59.70;;;;;;5057674;28;20486;-55
2021/12/08 03:14:26;;;;;;;12.83;12.53;;;17.20;59.80;;;;;;5074409;28;20451;-58
2021/12/08 03:16:56;;;;;;;12.80;12.43;;;17.20;60.00;;;;;;5074327;28;20443;-52
2021/12/08 03:19:25;;;;;;;12.80;12.50;;;17.20;60.00;;;;;;5074253;28;20443;-56
2021/12/08 03:21:52;;;;;;;12.60;12.10;;;17.20;60.00;;;;;;5070870;28;20440;-54
2021/12/08 03:24:25;;;;;;;12.73;12.33;;;17.20;60.20;;;;;;5054126;28;20816;-55
2021/12/08 03:27:03;;;;;;;13.40;13.10;;;17.10;60.30;;;;;;5054203;28;20452;-54
2021/12/08 03:29:33;;;;;;;13.30;12.90;;;17.10;60.50;;;;;;5054142;28;20455;-54
2021/12/08 03:32:06;;;;;;;12.60;12.30;;;17.20;60.50;;;;;;5057365;28;21004;-57
2021/12/08 03:34:37;;;;;;;13.07;12.70;;;17.20;60.60;;;;;;5074085;28;20455;-55
2021/12/08 03:37:05;;;;;;;12.70;12.40;;;17.10;60.70;;;;;;5074101;28;20863;-55
2021/12/08 03:39:32;;;;;;;12.83;12.50;;;17.10;61.00;;;;;;5073769;28;20472;-56
2021/12/08 03:41:59;;;;;;;12.10;11.80;;;17.10;61.00;;;;;;5069980;28;20443;-56
2021/12/08 03:44:26;;;;;;;13.00;12.60;;;17.20;61.10;;;;;;5053981;28;20467;-57
2021/12/08 03:46:59;;;;;;;13.00;12.60;;;17.10;61.00;;;;;;5053732;28;20555;-53
2021/12/08 03:49:27;;;;;;;13.10;12.80;;;17.10;61.10;;;;;;5053786;28;20543;-58
2021/12/08 03:51:58;;;;;;;12.00;11.70;;;17.10;61.50;;;;;;5055900;28;20484;-54
2021/12/08 03:54:25;;;;;;;11.90;11.60;;;17.10;61.50;;;;;;5073775;28;20455;-57
2021/12/08 03:56:52;;;;;;;12.00;11.70;;;17.10;62.10;;;;;;5073646;28;20443;-55
2021/12/08 03:59:18;;;;;;;12.53;12.23;;;17.00;62.20;;;;;;5073645;28;20471;-58
2021/12/08 04:01:45;;;;;;;12.80;12.50;;;17.10;63.60;;;;;;5072057;28;20450;-57
2021/12/08 04:04:14;;;;;;;13.10;12.80;;;17.10;63.80;;;;;;5053312;28;20459;-55
2021/12/08 04:06:46;;;;;;;13.73;13.33;;;17.10;63.90;;;;;;5053354;28;20510;-54
2021/12/08 04:09:24;;;;;;;13.00;12.60;;;17.10;64.00;;;;;;5053404;28;20452;-58
2021/12/08 04:11:51;;;;;;;12.83;12.53;;;17.10;64.30;;;;;;5054490;28;20451;-57
2021/12/08 04:14:20;;;;;;;12.27;11.97;;;17.10;64.50;;;;;;5073248;28;20451;-55
2021/12/08 04:16:51;;;;;;;11.93;11.60;;;17.10;64.90;;;;;;5073380;28;20448;-55
2021/12/08 04:19:20;;;;;;;12.47;12.17;;;17.10;64.90;;;;;;5073144;28;20852;-54
2021/12/08 04:21:50;;;;;;;12.03;11.73;;;17.00;65.10;;;;;;5072024;28;20926;-55
2021/12/08 04:24:17;;;;;;;11.43;11.17;;;17.10;65.70;;;;;;5053109;28;20475;-57
2021/12/08 04:26:50;;;;;;;11.83;11.53;;;17.10;65.80;;;;;;5053046;28;20451;-56
2021/12/08 04:29:18;;;;;;;11.50;11.20;;;17.20;66.00;;;;;;5052961;28;20448;-53
2021/12/08 04:31:47;;;;;;;11.30;11.00;;;17.20;65.90;;;;;;5052765;28;20453;-54
2021/12/08 04:34:19;;;;;;;12.00;11.70;;;17.20;66.00;;;;;;5072832;28;20461;-54
2021/12/08 04:36:50;;;;;;;11.50;11.20;;;17.20;66.10;;;;;;5073006;28;20530;-55
2021/12/08 04:39:23;;;;;;;12.80;12.50;;;17.20;66.20;;;;;;5072694;28;20439;-56
2021/12/08 04:41:56;;;;;;;11.53;11.23;;;17.20;66.50;;;;;;5071713;28;20533;-57
2021/12/08 04:44:30;;;;;;;11.90;11.60;;;17.20;66.40;;;;;;5052083;28;21007;-57
2021/12/08 04:47:24;;;;;;;12.00;11.70;;;17.20;66.70;;;;;;5052642;28;20947;-55
2021/12/08 04:50:29;;;;;;;12.77;12.37;;;17.20;66.90;;;;;;5052634;28;20470;-55
2021/12/08 04:53:04;;;;;;;12.30;12.00;;;17.20;67.90;;;;;;5061490;28;20475;-56
2021/12/08 05:01:16;;;;;;;12.70;12.40;;;17.20;86.90;;;;;;5072489;28;20811;-54
2021/12/08 05:06:45;;;;;;;13.43;13.00;;;17.30;91.40;;;;;;5026499;28;20510;-58
2021/12/08 05:09:19;;;;;;;12.47;12.07;;;17.30;92.40;;;;;;5052236;28;20480;-54
2021/12/08 05:11:49;;;;;;;12.30;12.00;;;17.30;92.90;;;;;;5052085;28;20443;-56
2021/12/08 05:14:21;;;;;;;13.80;13.30;;;17.30;93.30;;;;;;5052001;28;20488;-59
2021/12/08 05:16:50;;;;;;;13.17;12.83;;;17.30;93.80;;;;;;5052158;28;20443;-58
2021/12/08 05:19:21;;;;;;;13.47;12.97;;;17.40;94.30;;;;;;5052076;28;20455;-57
2021/12/08 05:21:53;;;;;;;12.60;12.00;;;17.30;94.70;;;;;;5051862;28;20925;-55
2021/12/08 05:24:27;;;;;;;13.40;13.00;;;17.20;95.40;;;;;;5052064;28;20436;-58
2021/12/08 05:26:59;;;;;;;15.57;14.60;;;17.20;98.20;;;;;;5051995;28;20454;-54
2021/12/08 05:29:34;;;;;;;15.03;13.83;;;17.20;99.90;;;;;;5051876;28;20763;-58
2021/12/08 05:32:03;;;;;;;14.13;12.57;;;17.30;99.90;;;;;;5052312;28;20444;-57
2021/12/08 05:34:29;;;;;;;12.63;11.23;;;17.40;99.90;;;;;;5071816;28;20824;-57
2021/12/08 05:36:57;;;;;;;13.67;8.93;;;17.40;99.90;;;;;;5071641;28;20452;-58
2021/12/08 05:39:27;;;;;;;21.80;8.20;;;17.50;99.90;;;;;;5071518;28;20447;-55
2021/12/08 05:41:57;;;;;;;14.63;6.53;;;17.60;99.90;;;;;;5093945;22;20733;-48
2021/12/08 05:44:24;;;;;;;10.97;7.10;;;17.60;99.90;;;;;;5052478;28;20819;-47
2021/12/08 05:46:54;;;;;;;8.47;7.10;;;17.60;99.90;;;;;;5054889;28;20847;-53
2021/12/08 05:49:21;;;;;;;10.63;8.90;;;17.60;99.90;;;;;;5051653;28;20952;-49
2021/12/08 05:51:51;;;;;;;17.13;11.50;;;17.80;99.90;;;;;;5068070;28;20463;-47
2021/12/08 05:54:20;;;;;;;14.73;13.10;;;18.60;99.90;;;;;;5072495;28;20510;-46
2021/12/08 05:56:51;;;;;;;13.07;11.83;;;19.30;99.90;;;;;;5070643;28;20443;-46
2021/12/08 05:59:18;;;;;;;15.97;14.80;;;19.60;99.90;;;;;;5071510;28;20895;-45
2021/12/08 06:01:48;;;;;;;15.10;13.90;;;20.00;99.90;;;;;;5071206;28;20466;-45
2021/12/08 06:04:15;;;;;;;16.60;14.90;;;20.00;99.90;;;;;;5071082;28;20450;-45
2021/12/08 06:06:42;;;;;;;15.00;13.60;;;20.10;99.90;;;;;;5071447;28;20446;-45
2021/12/08 06:09:12;;;;;;;16.37;15.13;;;20.20;99.90;;;;;;5071547;28;20565;-45
2021/12/08 06:11:39;;;;;;;15.13;14.30;;;20.30;99.90;;;;;;5071042;28;20467;-45
2021/12/08 06:14:07;;;;;;;15.80;14.77;;;20.30;99.90;;;;;;5071301;28;20485;-45
2021/12/08 06:16:36;;;;;;;15.70;14.40;;;20.40;99.90;;;;;;5071352;28;20447;-45
2021/12/08 06:19:05;;;;;;;16.20;14.93;;;20.40;99.90;;;;;;5071247;28;20451;-45
2021/12/08 06:21:32;;;;;;;15.90;14.43;;;20.50;99.90;;;;;;5070980;28;20507;-47
2021/12/08 06:24:00;;;;;;;15.73;14.70;;;20.50;99.90;;;;;;5071192;28;20924;-45
2021/12/08 06:26:28;;;;;;;16.63;15.17;;;20.50;99.90;;;;;;5071381;28;20447;-45
2021/12/08 06:28:56;;;;;;;15.37;14.40;;;20.40;99.90;;;;;;5071208;28;20797;-45
2021/12/08 06:31:27;;;;;;;14.70;13.90;;;20.50;99.60;;;;;;5070944;28;20521;-45
2021/12/08 06:33:54;;;;;;;15.50;14.47;;;20.40;98.90;;;;;;5071004;28;20479;-47
2021/12/08 06:36:26;;;;;;;14.70;14.00;;;20.40;98.40;;;;;;5071111;28;20439;-45
2021/12/08 06:38:54;;;;;;;15.50;14.47;;;20.40;97.80;;;;;;5071079;28;20439;-45
2021/12/08 06:41:25;;;;;;;14.40;13.70;;;20.40;97.20;;;;;;5070868;28;20479;-45
2021/12/08 06:43:57;;;;;;;14.33;13.53;;;20.40;96.40;;;;;;5070909;28;20447;-45
2021/12/08 06:46:27;;;;;;;18.27;16.97;;;20.30;96.10;;;;;;5071039;28;20443;-45
2021/12/08 06:48:57;;;;;;;15.90;14.90;;;20.30;95.70;;;;;;5070926;28;20439;-46
2021/12/08 06:51:27;;;;;;;15.07;14.37;;;20.30;95.00;;;;;;5071007;28;20520;-46
2021/12/08 06:53:58;;;;;;;15.60;14.77;;;20.30;94.60;;;;;;5070820;28;20995;-45
2021/12/08 06:56:30;;;;;;;15.67;14.97;;;20.40;94.10;;;;;;5071016;28;20943;-45
2021/12/08 06:59:01;;;;;;;15.47;14.60;;;20.30;93.50;;;;;;5070793;28;20454;-45
2021/12/08 07:01:42;;;;;;;15.43;14.50;;;20.30;93.10;;;;;;5070785;28;20463;-49
2021/12/08 07:04:26;;;;;;;15.30;14.60;;;20.30;92.50;;;;;;5070886;28;20443;-45
2021/12/08 07:07:00;;;;;;;15.97;14.23;;;20.20;92.20;;;;;;5071317;28;20843;-47
2021/12/08 07:09:32;;;;;;;14.27;13.37;;;20.20;91.70;;;;;;5074673;28;20474;-45
2021/12/08 07:12:03;;;;;;;14.03;13.33;;;20.30;91.30;;;;;;5074278;28;20470;-45
2021/12/08 07:14:32;;;;;;;13.30;12.40;;;20.10;91.10;;;;;;5074413;28;20486;-45
2021/12/08 07:17:05;;;;;;;15.37;14.57;;;20.20;90.70;;;;;;5074218;28;20443;-45
2021/12/08 07:19:43;;;;;;;13.40;12.73;;;20.20;90.40;;;;;;5074286;28;20470;-45
2021/12/08 07:22:13;;;;;;;13.10;12.50;;;20.10;90.00;;;;;;5073983;28;20494;-45
2021/12/08 07:24:43;;;;;;;14.07;13.17;;;20.10;89.20;;;;;;5074225;28;20440;-45
2021/12/08 07:27:13;;;;;;;14.60;13.80;;;20.10;88.50;;;;;;5074120;28;20451;-46
2021/12/08 07:29:43;;;;;;;14.40;13.70;;;20.10;87.70;;;;;;5074111;28;20454;-45
2021/12/08 07:32:15;;;;;;;13.17;12.50;;;20.10;87.10;;;;;;5073813;28;20464;-45
2021/12/08 07:34:43;;;;;;;13.23;12.73;;;20.00;86.30;;;;;;5074111;28;20482;-47
2021/12/08 07:37:13;;;;;;;13.03;12.43;;;20.00;85.60;;;;;;5074116;28;21050;-45
2021/12/08 07:39:45;;;;;;;12.90;12.40;;;20.00;85.20;;;;;;5073989;28;20473;-45
2021/12/08 07:42:17;;;;;;;13.37;12.90;;;20.00;84.90;;;;;;5073486;28;20794;-45
2021/12/08 07:44:45;;;;;;;13.77;13.20;;;19.90;84.20;;;;;;5073839;28;20451;-45
2021/12/08 07:47:14;;;;;;;13.43;12.90;;;19.90;83.80;;;;;;5073893;28;21077;-46
2021/12/08 07:49:44;;;;;;;12.97;12.50;;;19.90;83.50;;;;;;5073799;28;20451;-46
2021/12/08 07:52:13;;;;;;;14.13;13.33;;;19.80;83.20;;;;;;5073359;28;20466;-45
2021/12/08 07:54:41;;;;;;;14.33;13.57;;;19.80;82.90;;;;;;5073665;28;20578;-47
2021/12/08 07:57:11;;;;;;;14.23;13.63;;;19.70;83.20;;;;;;5073651;28;20550;-47
2021/12/08 07:59:41;;;;;;;13.60;13.10;;;19.70;82.60;;;;;;5073667;28;20827;-47
2021/12/08 08:02:09;;;;;;;13.83;13.13;;;19.60;82.50;;;;;;5073244;28;20529;-44
2021/12/08 08:04:40;;;;;;;13.47;12.87;;;19.50;82.70;;;;;;5073473;28;20450;-44
2021/12/08 08:07:08;;;;;;;14.30;13.60;;;19.40;82.80;;;;;;5073578;28;20446;-46
2021/12/08 08:09:42;;;;;;;14.37;13.57;;;19.30;83.10;;;;;;5073398;28;20451;-45
2021/12/08 08:12:13;;;;;;;13.97;13.53;;;19.20;83.20;;;;;;5073096;28;20810;-47
2021/12/08 08:14:43;;;;;;;13.57;13.03;;;19.20;83.40;;;;;;5073243;28;20482;-44
2021/12/08 08:17:14;;;;;;;14.00;13.50;;;19.10;83.70;;;;;;5073429;28;20439;-48
2021/12/08 08:19:45;;;;;;;13.17;12.67;;;19.00;84.10;;;;;;5071929;28;20526;-44
2021/12/08 08:22:16;;;;;;;14.00;13.50;;;18.90;84.20;;;;;;5073025;28;20463;-44
2021/12/08 08:24:42;;;;;;;13.90;13.40;;;18.90;84.30;;;;;;5073134;28;20447;-44
2021/12/08 08:27:12;;;;;;;13.57;12.87;;;18.90;84.40;;;;;;5073127;28;20470;-44
2021/12/08 08:29:39;;;;;;;13.07;12.57;;;18.80;84.40;;;;;;5073071;28;20450;-44
2021/12/08 08:32:11;;;;;;;12.57;12.10;;;18.70;84.40;;;;;;5072660;28;20971;-48
2021/12/08 08:34:44;;;;;;;13.37;12.87;;;18.70;84.40;;;;;;5072880;28;20569;-44
2021/12/08 08:37:13;;;;;;;12.50;12.10;;;18.70;84.30;;;;;;5072960;28;20443;-44
2021/12/08 08:39:44;;;;;;;12.83;12.17;;;18.70;84.40;;;;;;5072814;28;20462;-44
2021/12/08 08:42:16;;;;;;;12.70;12.27;;;18.70;84.30;;;;;;5072392;28;20471;-45
2021/12/08 08:44:46;;;;;;;12.97;12.47;;;18.60;84.10;;;;;;5072755;28;20489;-44
2021/12/08 08:47:16;;;;;;;12.80;12.20;;;18.60;84.00;;;;;;5072734;28;20455;-46
2021/12/08 08:49:45;;;;;;;13.37;12.67;;;18.50;83.80;;;;;;5072523;28;20455;-44
2021/12/08 08:52:16;;;;;;;12.50;11.90;;;18.50;83.80;;;;;;5072124;28;20490;-44
2021/12/08 08:54:46;;;;;;;13.20;12.70;;;18.50;83.80;;;;;;5072185;28;20483;-46
2021/12/08 08:57:17;;;;;;;14.00;13.40;;;18.50;83.70;;;;;;5072536;28;20443;-45
2021/12/08 08:59:47;;;;;;;13.77;13.37;;;18.50;83.50;;;;;;5072509;28;20454;-44
2021/12/08 09:02:17;;;;;;;13.60;13.13;;;18.40;83.30;;;;;;5072062;28;20471;-44
2021/12/08 09:04:49;;;;;;;14.17;13.67;;;18.40;83.30;;;;;;5072333;28;20842;-44
2021/12/08 09:07:21;;;;;;;13.67;13.17;;;18.40;83.50;;;;;;5072343;28;20874;-44
2021/12/08 09:09:49;;;;;;;13.40;13.00;;;18.40;83.40;;;;;;5072197;28;20440;-44
2021/12/08 09:12:25;;;;;;;13.40;12.90;;;18.40;83.20;;;;;;5071893;28;20451;-45
2021/12/08 09:14:55;;;;;;;13.93;13.40;;;18.40;83.00;;;;;;5072022;28;20486;-44
2021/12/08 09:17:25;;;;;;;14.37;13.97;;;18.40;82.80;;;;;;5072012;28;20447;-44
2021/12/08 09:19:59;;;;;;;13.67;13.27;;;18.40;82.70;;;;;;5071937;28;20451;-44
2021/12/08 09:22:30;;;;;;;13.57;13.00;;;18.40;82.40;;;;;;5071753;28;20485;-44
2021/12/08 09:25:02;;;;;;;13.70;13.30;;;18.40;82.30;;;;;;5071901;28;20444;-44
2021/12/08 09:27:31;;;;;;;14.10;13.60;;;18.40;82.20;;;;;;5071966;28;20439;-45
2021/12/08 09:30:01;;;;;;;13.77;13.17;;;18.40;81.90;;;;;;5071660;28;20520;-44
2021/12/08 09:32:34;;;;;;;14.40;13.90;;;18.40;82.00;;;;;;5071724;28;20450;-44
2021/12/08 09:35:10;;;;;;;13.70;13.20;;;18.30;82.40;;;;;;5071826;28;20839;-46
2021/12/08 09:37:40;;;;;;;14.53;14.00;;;18.20;82.50;;;;;;5071824;28;20447;-44
2021/12/08 09:40:12;;;;;;;14.07;13.47;;;18.10;82.70;;;;;;5071402;28;20466;-44
2021/12/08 09:42:42;;;;;;;13.70;13.30;;;18.10;83.00;;;;;;5071425;28;20439;-44
2021/12/08 09:45:14;;;;;;;14.50;13.93;;;18.10;83.00;;;;;;5071572;28;20509;-44
2021/12/08 09:47:41;;;;;;;13.70;13.30;;;18.00;82.80;;;;;;5071398;28;20450;-46
2021/12/08 09:50:13;;;;;;;13.90;13.40;;;18.10;82.50;;;;;;5071583;28;20439;-43
2021/12/08 09:52:42;;;;;;;13.90;13.40;;;18.20;81.90;;;;;;5071372;28;20509;-44
2021/12/08 09:55:13;;;;;;;14.43;13.80;;;18.20;81.40;;;;;;5071451;28;20486;-44
2021/12/08 09:57:40;;;;;;;13.93;13.53;;;18.20;81.10;;;;;;5071510;28;20500;-44
2021/12/08 10:00:09;;;;;;;13.20;12.80;;;18.20;81.20;;;;;;5071369;28;20454;-45
2021/12/08 10:02:37;;;;;;;13.20;12.70;;;18.20;80.90;;;;;;5071143;28;20940;-44
2021/12/08 10:05:07;;;;;;;13.67;13.17;;;18.20;80.50;;;;;;5071541;28;20802;-44
2021/12/08 10:07:37;;;;;;;13.07;12.67;;;18.20;80.10;;;;;;5071420;28;20450;-47
2021/12/08 10:10:05;;;;;;;13.70;13.10;;;18.30;80.00;;;;;;5071357;28;20454;-46
2021/12/08 10:12:34;;;;;;;13.77;13.37;;;18.30;79.60;;;;;;5071128;28;20447;-45
2021/12/08 10:15:01;;;;;;;13.93;13.43;;;18.30;80.00;;;;;;5071160;28;20852;-44
2021/12/08 10:17:28;;;;;;;13.10;12.70;;;18.30;78.80;;;;;;5071265;28;20496;-46
2021/12/08 10:20:11;;;;;;;12.30;12.00;;;18.30;78.40;;;;;;5071210;28;20455;-44
2021/12/08 10:22:41;;;;;;;12.50;12.20;;;18.30;78.30;;;;;;5071049;28;20443;-47
2021/12/08 10:25:11;;;;;;;13.83;13.43;;;18.20;78.40;;;;;;5071256;28;20924;-47
2021/12/08 10:28:04;;;;;;;14.23;13.73;;;18.20;78.60;;;;;;5071246;28;20439;-46
2021/12/08 10:30:32;;;;;;;14.10;13.70;;;18.10;78.60;;;;;;5071122;28;20462;-45
2021/12/08 10:33:00;;;;;;;14.50;14.00;;;18.10;78.70;;;;;;5071014;28;20454;-46
2021/12/08 10:35:47;;;;;;;14.70;14.20;;;18.10;78.60;;;;;;5071004;28;20536;-45
2021/12/08 10:38:16;;;;;;;13.97;13.37;;;18.10;78.10;;;;;;5071116;28;20450;-43
2021/12/08 10:41:01;;;;;;;13.87;13.37;;;18.10;78.00;;;;;;5070845;28;20559;-44
2021/12/08 10:43:28;;;;;;;14.50;13.97;;;18.10;77.80;;;;;;5073989;28;20878;-44
2021/12/08 10:46:05;;;;;;;12.70;12.40;;;18.10;77.70;;;;;;5074977;28;20445;-47
2021/12/08 10:48:38;;;;;;;12.80;12.40;;;18.10;77.30;;;;;;5074999;28;20446;-44
2021/12/08 10:54:27;;;;;;;12.90;12.50;;;18.10;76.40;;;;;;5074783;28;20592;-45
2021/12/08 10:56:56;;;;;;;13.60;13.20;;;18.10;76.20;;;;;;5074948;28;20968;-44
2021/12/08 10:59:25;;;;;;;14.23;13.83;;;18.10;76.30;;;;;;5074748;28;20458;-47
2021/12/08 11:01:53;;;;;;;13.90;13.40;;;18.10;76.40;;;;;;5074454;28;20520;-44
2021/12/08 11:04:28;;;;;;;13.23;12.83;;;18.10;76.30;;;;;;5074591;28;20530;-47
2021/12/08 11:07:05;;;;;;;13.53;13.13;;;18.10;76.20;;;;;;5074729;28;20442;-48
2021/12/08 11:09:42;;;;;;;13.20;12.70;;;18.20;76.00;;;;;;5074535;28;20932;-44
2021/12/08 11:12:09;;;;;;;13.43;13.03;;;18.20;75.40;;;;;;5074351;28;20486;-44
2021/12/08 11:14:47;;;;;;;12.40;12.07;;;18.20;75.00;;;;;;5074275;28;20483;-49
2021/12/08 11:17:26;;;;;;;13.07;12.60;;;18.30;74.80;;;;;;5074469;28;20454;-44
2021/12/08 11:20:15;;;;;;;11.80;11.50;;;18.30;74.40;;;;;;5074326;28;20800;-45
2021/12/08 11:22:43;;;;;;;11.77;11.47;;;18.30;74.10;;;;;;5074043;28;20498;-43
2021/12/08 11:25:23;;;;;;;12.37;11.97;;;18.30;73.90;;;;;;5074232;28;20526;-46
2021/12/08 11:27:50;;;;;;;12.57;12.17;;;18.30;73.50;;;;;;5074230;28;20443;-44
2021/12/08 11:30:19;;;;;;;13.17;12.80;;;18.40;73.30;;;;;;5074108;28;20460;-44
2021/12/08 11:32:46;;;;;;;12.50;12.10;;;18.40;72.90;;;;;;5074234;28;20451;-44
2021/12/08 11:35:19;;;;;;;12.50;12.20;;;18.40;72.60;;;;;;5074018;28;20482;-44
2021/12/08 11:37:58;;;;;;;13.20;12.80;;;18.40;72.60;;;;;;5074070;28;20532;-45
2021/12/08 11:40:26;;;;;;;13.17;12.80;;;18.30;72.50;;;;;;5095909;22;20612;-53
2021/12/08 11:42:54;;;;;;;11.60;11.30;;;18.40;72.40;;;;;;5073590;28;20440;-52
2021/12/08 11:45:22;;;;;;;11.90;11.60;;;18.40;72.10;;;;;;5073676;28;20440;-54
2021/12/08 11:47:48;;;;;;;11.90;11.60;;;18.50;71.50;;;;;;5073956;28;20447;-54
2021/12/08 11:50:17;;;;;;;11.40;11.10;;;18.60;71.10;;;;;;5073850;28;20447;-53
2021/12/08 11:52:44;;;;;;;12.00;11.70;;;18.70;70.60;;;;;;5073461;28;20439;-53
2021/12/08 11:55:13;;;;;;;12.70;12.37;;;18.70;69.80;;;;;;5073605;28;20490;-52
2021/12/08 11:57:45;;;;;;;12.90;12.50;;;18.70;69.40;;;;;;5073457;28;20436;-52
2021/12/08 12:00:15;;;;;;;13.20;12.80;;;18.70;69.00;;;;;;5073507;28;20447;-50
2021/12/08 12:02:45;;;;;;;13.13;12.83;;;18.80;68.70;;;;;;5073356;28;20479;-51
2021/12/08 12:05:15;;;;;;;13.13;12.73;;;18.80;68.40;;;;;;5073562;28;20469;-51
2021/12/08 12:07:42;;;;;;;12.50;12.10;;;18.80;68.20;;;;;;5073481;28;20498;-52
2021/12/08 12:10:11;;;;;;;12.43;12.03;;;18.80;68.10;;;;;;5073441;28;20446;-51
2021/12/08 12:12:39;;;;;;;12.70;12.37;;;18.80;67.90;;;;;;5073179;28;20451;-55
2021/12/08 12:15:09;;;;;;;12.50;12.20;;;18.70;67.70;;;;;;5073360;28;20513;-51
2021/12/08 12:17:36;;;;;;;12.40;12.10;;;18.80;67.80;;;;;;5073236;28;20485;-53
2021/12/08 12:20:07;;;;;;;13.57;13.17;;;18.70;67.50;;;;;;5073224;28;20454;-53
2021/12/08 12:22:42;;;;;;;13.23;12.83;;;18.70;67.40;;;;;;5073024;28;20448;-52
2021/12/08 12:25:29;;;;;;;13.40;13.10;;;18.70;67.30;;;;;;5073318;28;20439;-55
2021/12/08 12:28:32;;;;;;;12.60;12.20;;;18.70;67.20;;;;;;5072694;28;20462;-51
2021/12/08 12:31:11;;;;;;;13.80;13.30;;;18.70;67.00;;;;;;5048786;28;20869;-54
2021/12/08 12:33:42;;;;;;;13.77;13.37;;;18.80;66.90;;;;;;5072642;28;20439;-51
2021/12/08 12:36:19;;;;;;;12.80;12.50;;;18.80;66.70;;;;;;5072853;28;20483;-53
2021/12/08 12:38:47;;;;;;;13.70;13.40;;;18.80;66.40;;;;;;5072892;28;20504;-54
2021/12/08 12:41:26;;;;;;;13.27;12.90;;;18.90;66.20;;;;;;5072572;28;20483;-57
2021/12/08 12:44:12;;;;;;;13.80;13.40;;;19.10;65.40;;;;;;5072611;28;20936;-56
2021/12/08 12:47:22;;;;;;;13.70;13.30;;;19.30;64.70;;;;;;5072691;28;20443;-53
2021/12/08 12:50:09;;;;;;;13.10;12.80;;;19.50;63.40;;;;;;5072666;28;20444;-53
2021/12/08 12:52:38;;;;;;;13.83;13.43;;;19.60;62.70;;;;;;5072300;28;20447;-50
2021/12/08 12:55:10;;;;;;;13.20;12.80;;;19.60;62.10;;;;;;5072474;28;20479;-52
2021/12/08 12:58:12;;;;;;;13.77;13.40;;;19.60;61.90;;;;;;5072533;28;20451;-53
2021/12/08 13:00:41;;;;;;;13.93;13.53;;;19.60;61.60;;;;;;5072335;28;20470;-50
2021/12/08 13:03:30;;;;;;;13.57;13.17;;;19.70;61.30;;;;;;5072102;28;20450;-53
2021/12/08 13:05:57;;;;;;;14.03;13.60;;;19.70;60.90;;;;;;5071506;28;20443;-51
2021/12/08 13:08:30;;;;;;;13.70;13.30;;;19.70;60.40;;;;;;5072198;28;20447;-54
2021/12/08 13:10:59;;;;;;;13.60;13.20;;;19.80;60.10;;;;;;5072004;28;20498;-55
2021/12/08 13:13:26;;;;;;;14.43;13.93;;;19.80;59.80;;;;;;5071963;28;20443;-53